Flight Track Log - Related Links

Times and Time Zones

All times are in EDT time to prevent confusion due to time zone crossing. See the FLG4081 flight status page for this flight to view local times or setup timezone preferences in your user account.

Time Position Orientation Groundspeed Altitude Reporting Facility
EDT Latitude Longitude Course Direction KTS MPH feet Rate Location/Type
Wed 03:05:21 PM 43.1092 -76.0864 288° West 164 189 1,300  Level Boston Center
Wed 03:05:40 PM 43.1117 -76.0694 79° East 166 191 1,800 1,985 Climbing Boston Center
Wed 03:07:34 PM 43.1897 -76.0836 352° North 236 272 5,700 2,310 Climbing Cleveland Center
Wed 03:08:00 PM 43.2099 -76.5786 280° West  Level FlightAware Approximate
Wed 03:08:34 PM 43.1833 -76.1867 265° West 213 245 8,500  Level Cleveland Center
Wed 03:09:00 PM 43.2334 -76.7056 288° West  Level FlightAware Approximate
Wed 03:09:34 PM 43.1772 -76.3039 266° West 253 291 10,000  Level Cleveland Center
Wed 03:10:00 PM 43.2623 -76.8309 288° West  Level FlightAware Approximate
Wed 03:10:34 PM 43.1844 -76.4400 274° West 312 359 11,000  Level Cleveland Center
Wed 03:11:34 PM 43.1686 -76.5864 262° West 370 426 12,500 1,450 Climbing Cleveland Center
Wed 03:12:34 PM 43.1522 -76.7211 261° West 384 442 13,900 1,450 Climbing Cleveland Center
Wed 03:13:34 PM 43.1364 -76.8703 262° West 398 458 15,400 1,650 Climbing Cleveland Center
Wed 03:14:34 PM 43.1203 -77.0192 262° West 398 458 17,200 1,450 Climbing Cleveland Center
Wed 03:15:34 PM 43.1058 -77.1678 262° West 403 464 18,300 1,250 Climbing Cleveland Center
Wed 03:16:34 PM 43.0894 -77.3194 262° West 403 464 19,700 1,250 Climbing Cleveland Center
Wed 03:17:34 PM 43.0706 -77.4683 260° West 408 470 20,800 1,050 Climbing Cleveland Center
Wed 03:18:34 PM 43.0517 -77.6228 261° West 408 470 21,800 850 Climbing Cleveland Center
Wed 03:19:34 PM 43.0350 -77.7825 262° West 413 475 22,500 750 Climbing Cleveland Center
Wed 03:20:34 PM 43.0178 -77.9394 262° West 418 481 23,300 900 Climbing Cleveland Center
Wed 03:21:34 PM 42.9947 -78.1194 260° West 429 494 24,300 900 Climbing Cleveland Center
Wed 03:22:34 PM 42.9750 -78.2761 260° West 429 494 25,100 800 Climbing Cleveland Center
Wed 03:23:34 PM 42.9550 -78.4386 261° West 429 494 25,900 450 Climbing Cleveland Center
Wed 03:24:34 PM 42.9353 -78.6039 261° West 438 504 26,000 50 Climbing Cleveland Center
Wed 03:25:34 PM 42.9131 -78.7747 260° West 444 511 26,000  Level Cleveland Center
Wed 03:26:34 PM 42.8883 -78.9453 259° West 455 524 26,000  Level Cleveland Center
Wed 03:27:34 PM 42.8636 -79.1189 259° West 460 529 26,000  Level Cleveland Center
Wed 03:28:34 PM 42.8386 -79.2922 259° West 470 541 26,000  Level Cleveland Center
Wed 03:29:34 PM 42.8133 -79.4625 259° West 470 541 26,000  Level Cleveland Center
Wed 03:30:34 PM 42.7878 -79.6356 259° West 470 541 26,000  Level Cleveland Center
Wed 03:31:34 PM 42.7619 -79.8083 259° West 470 541 26,000  Level Cleveland Center
Wed 03:32:34 PM 42.7503 -79.9442 263° West 470 541 26,000  Level Cleveland Center
Wed 03:33:34 PM 42.7408 -80.1422 266° West 475 547 26,000  Level Cleveland Center
Wed 03:34:34 PM 42.7331 -80.3147 267° West 469 540 26,000  Level Cleveland Center
Wed 03:35:34 PM 42.7247 -80.4900 266° West 464 534 26,000  Level Cleveland Center
Wed 03:36:34 PM 42.7164 -80.6792 267° West 464 534 26,000  Level Cleveland Center
Wed 03:37:34 PM 42.7100 -80.8517 267° West 464 534 26,000  Level Cleveland Center
Wed 03:38:34 PM 42.6906 -81.0239 261° West 464 534 26,000  Level Cleveland Center
Wed 03:39:34 PM 42.6711 -81.1958 261° West 469 540 26,000 -400 Level Cleveland Center
Wed 03:40:34 PM 42.6514 -81.3708 261° West 467 537 25,200 -1,450 Descending Cleveland Center
Wed 03:41:34 PM 42.6333 -81.5400 262° West 467 537 23,100 -2,050 Descending Cleveland Center
Wed 03:42:34 PM 42.6131 -81.7031 260° West 457 526 21,100 -1,850 Descending Cleveland Center
Wed 03:43:34 PM 42.5950 -81.8439 260° West 442 509 19,400 -1,600 Descending Cleveland Center
Wed 03:44:34 PM 42.5764 -82.0042 261° West 437 503 17,900 -1,650 Descending Cleveland Center
Wed 03:45:34 PM 42.5556 -82.1617 260° West 432 497 16,100 -1,800 Descending Cleveland Center
Wed 03:46:34 PM 42.5369 -82.3106 260° West 419 482 14,300 -1,976 Descending Cleveland Center
Wed 03:46:59 PM 42.5292 -82.3947 263° West 390 449 13,300 -1,600 Descending Cleveland Center
Wed 03:47:34 PM 42.5178 -82.4564 256° West 409 471 12,700 -1,164 Descending Cleveland Center
Wed 03:48:06 PM 42.5039 -82.5517 259° West 391 450 12,000 -700 Descending Cleveland Center
Wed 03:48:34 PM 42.4886 -82.5936 244° Southwest 398 458 12,000 -982 Level Cleveland Center
Wed 03:49:01 PM 42.4661 -82.6717 249° West 368 423 11,100 -1,500 Descending Cleveland Center
Wed 03:49:34 PM 42.4467 -82.7189 241° Southwest 379 436 10,500 -982 Descending Cleveland Center
Wed 03:49:56 PM 42.4289 -82.7689 244° Southwest 307 353 10,200 -800 Descending Cleveland Center
Wed 03:50:34 PM 42.4197 -82.8192 256° West 341 392 9,700 -1,254 Descending Cleveland Center
Wed 03:51:03 PM 42.4142 -82.8808 263° West 269 310 8,800 -1,500 Descending Cleveland Center
Wed 03:51:34 PM 42.4072 -82.9200 257° West 295 339 8,200 -1,574 Descending Cleveland Center
Wed 03:52:04 PM 42.3994 -82.9900 261° West 273 314 7,200 -1,500 Descending Cleveland Center
Wed 03:52:34 PM 42.3928 -83.0206 254° West 276 318 6,700 -1,475 Descending Cleveland Center
Wed 03:53:05 PM 42.3850 -83.0850 261° West 267 307 5,700 -1,500 Descending Cleveland Center
Wed 03:53:34 PM 42.3800 -83.1186 259° West 271 312 5,200 -1,475 Descending Cleveland Center
Wed 03:54:06 PM 42.3558 -83.1767 241° Southwest 260 299 4,200 -1,300 Descending Cleveland Center
Wed 03:54:34 PM 42.3428 -83.2042 237° Southwest 265 305 3,900 -1,091 Descending Cleveland Center
Wed 03:55:01 PM 42.3253 -83.2456 240° Southwest 216 249 3,200 -1,100 Descending Cleveland Center
Wed 03:55:34 PM 42.3081 -83.2675 223° Southwest 243 280 2,800 -968 Descending Cleveland Center
Wed 03:56:03 PM 42.2803 -83.2942 215° Southwest 183 211 2,200 -1,000 Descending Cleveland Center
Wed 03:57:10 PM 42.2400 -83.3233 208° Southwest 143 165 1,200 -896 Descending Cleveland Center

Login

Don't have an account? Register now (free) for customized features, flight alerts, and more!